bureau de piste

METAR LFMD 261330Z AUTO 13003KT 070V190 9999 OVC074 16/13 Q1006 TEMPO RA

TAF LFMD 260800Z 2609/2709 36005KT 8000 BKN020 TEMPO 2609/2611 4000 RA BKN014 OVC030 BECMG 2611/2613 24010KT 9999 FEW020 BKN080 PROB30 TEMPO 2612/2617 RA SCT020 BKN060 BECMG 2621/2623 36005KT CAVOK PROB40 TEMPO 2703/2709 BKN020

INFORMATION ADDS - 1348 UTC 26 April 2017

Plus d’information sur les terrains : LFMD et VALBERG

Les commentaires sont clos.